Time;durP1;ratioP1;P1;durP2;ratioP2;P2;SDS_P1;SDS_P2;PMS_P1;PMS_P2;Temp;Humidity;BMP_temperature;BMP_pressure;BME280_temperature;BME280_humidity;BME280_pressure;Samples;Min_cycle;Max_cycle;Signal;HPM_P1;HPM_P2
2022/08/09 00:01:09;;;;;;;;;16.00;14.00;;;;;21.91;46.46;101750.81;5099023;27;45367;-61
2022/08/09 00:03:34;;;;;;;;;13.00;13.00;;;;;21.91;46.72;101743.56;5098995;27;45269;-61
2022/08/09 00:05:59;;;;;;;;;11.33;11.00;;;;;21.89;46.67;101744.69;5098135;27;45262;-64
2022/08/09 00:08:25;;;;;;;;;11.67;10.00;;;;;21.77;46.73;101744.72;5099298;27;45583;-62
2022/08/09 00:10:50;;;;;;;;;7.00;7.00;;;;;21.65;47.35;101737.66;5098416;27;45312;-62
2022/08/09 00:13:16;;;;;;;;;6.67;5.00;;;;;21.69;47.01;101744.50;5097111;27;45254;-61
2022/08/09 00:15:41;;;;;;;;;10.33;8.00;;;;;21.72;47.33;101746.09;5097327;27;45952;-61
2022/08/09 00:18:07;;;;;;;;;13.00;8.00;;;;;21.70;47.12;101748.94;5098604;27;45154;-61
2022/08/09 00:20:32;;;;;;;;;7.00;7.00;;;;;21.69;47.39;101749.94;5097856;27;46225;-62
2022/08/09 00:22:57;;;;;;;;;8.00;8.00;;;;;21.64;47.73;101751.31;5098652;27;45236;-62
2022/08/09 00:25:23;;;;;;;;;7.67;7.67;;;;;21.56;47.60;101746.53;5098275;27;45277;-62
2022/08/09 00:27:48;;;;;;;;;7.67;7.67;;;;;21.53;47.34;101729.72;5098365;27;45785;-60
2022/08/09 00:30:14;;;;;;;;;8.33;7.00;;;;;21.53;47.74;101732.41;5098202;27;45851;-62
2022/08/09 00:32:40;;;;;;;;;8.00;7.00;;;;;21.46;48.06;101726.63;5084809;27;45674;-61
2022/08/09 00:35:06;;;;;;;;;7.33;7.33;;;;;21.48;48.00;101735.47;5083692;27;45281;-62
2022/08/09 00:37:31;;;;;;;;;7.00;7.00;;;;;21.47;48.20;101725.66;5098548;27;45461;-62
2022/08/09 00:39:56;;;;;;;;;9.33;8.33;;;;;21.40;48.06;101719.91;5098110;27;45390;-62
2022/08/09 00:42:22;;;;;;;;;5.33;5.33;;;;;21.42;48.65;101722.47;5097910;27;45442;-61
2022/08/09 00:44:47;;;;;;;;;7.67;7.67;;;;;21.25;48.94;101701.38;5098026;27;45385;-61
2022/08/09 00:47:13;;;;;;;;;6.00;6.00;;;;;21.28;48.63;101710.09;5098085;27;45351;-61
2022/08/09 00:49:38;;;;;;;;;7.00;7.00;;;;;21.33;48.77;101725.94;5097291;27;45492;-62
2022/08/09 00:52:05;;;;;;;;;6.00;6.00;;;;;21.24;49.96;101740.22;5096330;27;45295;-61
2022/08/09 00:54:30;;;;;;;;;7.33;7.33;;;;;21.09;49.62;101732.38;5097969;27;45348;-62
2022/08/09 00:56:56;;;;;;;;;5.00;5.00;;;;;21.10;49.48;101720.59;5098436;27;45251;-61
2022/08/09 00:59:21;;;;;;;;;6.67;5.00;;;;;21.17;49.32;101727.19;5097071;27;46006;-61
2022/08/09 01:01:49;;;;;;;;;6.67;6.67;;;;;21.18;49.82;101734.31;5097538;27;45220;-61
2022/08/09 01:04:30;;;;;;;;;9.00;7.00;;;;;21.11;49.55;101738.53;5097721;27;45391;-62
2022/08/09 01:07:18;;;;;;;;;8.00;8.00;;;;;21.13;49.86;101739.25;5079331;27;45267;-61
2022/08/09 01:09:53;;;;;;;;;10.00;10.00;;;;;21.02;49.93;101728.47;5097834;27;45334;-63
2022/08/09 01:12:50;;;;;;;;;6.00;5.33;;;;;21.04;50.32;101737.31;5097405;27;45161;-61
2022/08/09 01:15:23;;;;;;;;;7.00;6.00;;;;;20.92;50.29;101733.75;5097471;27;45399;-62
2022/08/09 01:18:00;;;;;;;;;8.00;7.00;;;;;20.92;51.02;101735.59;5099314;27;45436;-61
2022/08/09 01:20:40;;;;;;;;;6.00;6.00;;;;;20.81;51.12;101713.97;5098865;27;45811;-62
2022/08/09 01:23:15;;;;;;;;;7.00;6.33;;;;;20.86;51.06;101734.28;5097767;27;45477;-61
2022/08/09 01:26:22;;;;;;;;;5.00;5.00;;;;;20.80;50.65;101731.19;5097099;27;45353;-61
2022/08/09 01:28:54;;;;;;;;;7.67;5.00;;;;;20.79;51.20;101718.66;5097469;27;45219;-61
2022/08/09 01:31:24;;;;;;;;;5.33;5.33;;;;;20.80;51.16;101728.50;5096819;27;46246;-60
2022/08/09 01:33:51;;;;;;;;;7.00;7.00;;;;;20.75;51.17;101728.00;5097289;27;45290;-61
2022/08/09 01:36:21;;;;;;;;;6.33;6.33;;;;;20.79;50.91;101726.78;5097413;27;45393;-61
2022/08/09 01:38:49;;;;;;;;;9.67;8.67;;;;;20.80;51.60;101733.91;5097059;27;45560;-61
2022/08/09 01:41:17;;;;;;;;;6.00;6.00;;;;;20.65;52.08;101727.88;5097107;27;46582;-62
2022/08/09 01:43:46;;;;;;;;;8.67;5.67;;;;;20.60;51.91;101728.28;5096777;27;45416;-60
2022/08/09 01:46:14;;;;;;;;;6.33;5.00;;;;;20.55;52.40;101738.56;5078671;27;45290;-62
2022/08/09 01:48:41;;;;;;;;;6.00;6.00;;;;;20.56;52.17;101737.59;5097004;27;45334;-61
2022/08/09 01:51:07;;;;;;;;;6.00;6.00;;;;;20.60;51.90;101736.38;5078698;27;46560;-62
2022/08/09 01:53:35;;;;;;;;;8.00;6.00;;;;;20.52;52.46;101719.03;5097013;27;45378;-60
2022/08/09 01:56:02;;;;;;;;;6.67;6.67;;;;;20.51;52.52;101723.59;5096111;27;45373;-61
2022/08/09 01:58:30;;;;;;;;;6.00;6.00;;;;;20.51;52.38;101728.13;5097175;27;45508;-61
2022/08/09 02:00:58;;;;;;;;;7.33;7.33;;;;;20.48;52.33;101729.25;5096738;27;46280;-61
2022/08/09 02:03:24;;;;;;;;;8.00;8.00;;;;;20.43;52.81;101726.03;5096843;27;45478;-61
2022/08/09 02:05:53;;;;;;;;;7.00;7.00;;;;;20.36;53.05;101724.78;5096674;27;45339;-60
2022/08/09 02:08:20;;;;;;;;;8.67;7.33;;;;;20.36;53.19;101723.94;5079107;27;45407;-61
2022/08/09 02:10:49;;;;;;;;;6.67;6.67;;;;;20.38;53.16;101739.03;5096432;27;45524;-62
2022/08/09 02:13:16;;;;;;;;;7.33;7.00;;;;;20.32;53.04;101723.31;5096725;27;45243;-62
2022/08/09 02:15:48;;;;;;;;;6.00;5.00;;;;;20.29;53.76;101734.34;5078693;27;45341;-61
2022/08/09 02:18:18;;;;;;;;;6.33;6.33;;;;;20.19;54.09;101727.97;5096955;27;45299;-61
2022/08/09 02:20:48;;;;;;;;;4.00;4.00;;;;;20.14;54.41;101727.44;5096286;27;46793;-61
2022/08/09 02:23:20;;;;;;;;;6.00;6.00;;;;;20.01;54.50;101716.75;5096316;27;45512;-61
2022/08/09 02:25:49;;;;;;;;;9.00;6.33;;;;;20.03;54.40;101723.75;5096364;27;45405;-60
2022/08/09 02:28:22;;;;;;;;;6.67;6.33;;;;;19.94;54.72;101718.22;5096082;27;45397;-61
2022/08/09 02:30:57;;;;;;;;;7.33;7.33;;;;;19.86;54.95;101715.25;5099568;27;45353;-61
2022/08/09 02:33:28;;;;;;;;;8.00;8.00;;;;;19.88;54.92;101719.53;5081430;27;45354;-62
2022/08/09 02:35:57;;;;;;;;;7.00;6.00;;;;;19.82;55.11;101714.63;5098563;27;45235;-60
2022/08/09 02:38:29;;;;;;;;;5.67;5.67;;;;;19.85;54.43;101719.78;5081547;27;45424;-61
2022/08/09 02:41:00;;;;;;;;;5.67;5.67;;;;;19.92;54.01;101721.03;5099544;27;47287;-62
2022/08/09 02:43:30;;;;;;;;;1.67;1.00;;;;;19.97;54.43;101724.22;5100064;27;45244;-61
2022/08/09 02:46:00;;;;;;;;;8.33;6.33;;;;;19.95;54.10;101719.94;5099953;27;45424;-61
2022/08/09 02:48:28;;;;;;;;;7.33;7.33;;;;;19.90;55.00;101722.13;5081425;27;45318;-60
2022/08/09 02:50:57;;;;;;;;;7.00;7.00;;;;;19.89;54.19;101717.69;5099640;27;45361;-62
2022/08/09 02:53:28;;;;;;;;;6.33;6.33;;;;;19.86;54.63;101716.09;5081002;27;45345;-62
2022/08/09 02:55:56;;;;;;;;;8.67;7.67;;;;;19.77;54.84;101700.59;5099785;27;45349;-62
2022/08/09 02:58:25;;;;;;;;;8.67;7.00;;;;;19.86;54.85;101715.25;5100658;27;45395;-61
2022/08/09 03:00:53;;;;;;;;;7.33;6.67;;;;;19.85;55.01;101711.69;5099969;27;46196;-61
2022/08/09 03:03:20;;;;;;;;;7.00;6.00;;;;;19.82;55.09;101708.38;5099104;27;46418;-60
2022/08/09 03:05:49;;;;;;;;;6.00;6.00;;;;;19.79;55.07;101708.56;5098937;27;45479;-60
2022/08/09 03:08:15;;;;;;;;;9.00;6.00;;;;;19.78;55.11;101707.72;5100174;27;45559;-61
2022/08/09 03:10:43;;;;;;;;;7.00;5.33;;;;;19.74;55.41;101717.03;5099644;27;45402;-62
2022/08/09 03:13:09;;;;;;;;;6.33;6.33;;;;;19.64;56.11;101716.03;5099877;27;45328;-62
2022/08/09 03:15:37;;;;;;;;;5.00;5.00;;;;;19.58;55.84;101708.41;5081179;27;45385;-61
2022/08/09 03:18:03;;;;;;;;;6.33;6.33;;;;;19.54;56.32;101709.59;5099351;27;45384;-61
2022/08/09 03:20:30;;;;;;;;;7.00;7.00;;;;;19.52;56.29;101714.22;5098724;27;45478;-60
2022/08/09 03:22:56;;;;;;;;;6.33;6.33;;;;;19.48;56.24;101704.66;5099729;27;45318;-62
2022/08/09 03:25:22;;;;;;;;;7.00;7.00;;;;;19.51;56.22;101715.19;5099165;27;45431;-62
2022/08/09 03:27:51;;;;;;;;;9.00;7.67;;;;;19.48;56.00;101710.91;5099248;27;45582;-62
2022/08/09 03:30:17;;;;;;;;;9.67;7.33;;;;;19.45;56.24;101714.69;5097814;27;46135;-61
2022/08/09 03:32:44;;;;;;;;;6.33;6.33;;;;;19.52;55.82;101722.31;5099017;27;45354;-62
2022/08/09 03:35:10;;;;;;;;;7.00;7.00;;;;;19.47;56.23;101717.28;5099484;27;45420;-60
2022/08/09 03:37:36;;;;;;;;;7.00;7.00;;;;;19.41;56.51;101712.34;5099811;27;45577;-61
2022/08/09 03:40:02;;;;;;;;;8.67;7.00;;;;;19.30;56.59;101704.22;5098233;27;46443;-60
2022/08/09 03:42:28;;;;;;;;;9.00;7.67;;;;;19.36;56.21;101718.06;5099272;27;45199;-62
2022/08/09 03:44:53;;;;;;;;;7.00;7.00;;;;;19.38;56.64;101718.81;5099182;27;45188;-61
2022/08/09 03:47:19;;;;;;;;;7.33;5.67;;;;;19.32;56.64;101705.81;5099509;27;45144;-60
2022/08/09 03:49:45;;;;;;;;;6.33;3.67;;;;;19.40;56.14;101708.81;5098588;27;45949;-62
2022/08/09 03:52:15;;;;;;;;;8.00;7.33;;;;;19.44;56.34;101709.41;5099017;27;45448;-61
2022/08/09 03:54:43;;;;;;;;;7.00;7.00;;;;;19.41;56.47;101715.91;5098747;27;45187;-61
2022/08/09 03:57:11;;;;;;;;;7.33;7.33;;;;;19.34;56.94;101703.84;5099584;27;45584;-61
2022/08/09 03:59:37;;;;;;;;;8.67;7.00;;;;;19.37;56.30;101722.50;5099276;27;45394;-61
2022/08/09 04:02:03;;;;;;;;;9.00;9.00;;;;;19.36;56.10;101711.81;5099869;27;45417;-61
2022/08/09 04:04:30;;;;;;;;;7.00;7.00;;;;;19.38;57.07;101715.25;5099428;27;45347;-59
2022/08/09 04:06:57;;;;;;;;;6.00;6.00;;;;;19.35;56.46;101716.34;5099273;27;45328;-60
2022/08/09 04:09:25;;;;;;;;;5.00;5.00;;;;;19.37;56.78;101722.50;5098747;27;46172;-63
2022/08/09 04:12:08;;;;;;;;;7.00;6.33;;;;;19.38;56.58;101723.34;5098568;27;45493;-61
2022/08/09 04:14:34;;;;;;;;;7.00;7.00;;;;;19.32;56.75;101724.69;5098917;27;45227;-62
2022/08/09 04:17:00;;;;;;;;;5.67;5.67;;;;;19.28;56.86;101725.91;5098930;27;45433;-60
2022/08/09 04:19:25;;;;;;;;;7.33;7.33;;;;;19.21;57.68;101732.72;5098313;27;45476;-61
2022/08/09 04:21:51;;;;;;;;;9.33;8.00;;;;;19.15;57.17;101738.56;5098312;27;45267;-60
2022/08/09 04:24:16;;;;;;;;;9.00;7.67;;;;;19.13;57.28;101732.41;5097956;27;45870;-60
2022/08/09 04:26:42;;;;;;;;;8.33;7.33;;;;;19.14;57.32;101735.03;5098614;27;45489;-60
2022/08/09 04:29:07;;;;;;;;;7.33;6.00;;;;;19.09;57.52;101730.91;5097112;27;48335;-60
2022/08/09 04:31:33;;;;;;;;;9.00;8.67;;;;;19.04;57.62;101733.97;5098186;27;45496;-59
2022/08/09 04:33:58;;;;;;;;;6.33;6.00;;;;;18.98;58.00;101734.41;5079666;27;45495;-61
2022/08/09 04:36:27;;;;;;;;;8.67;7.00;;;;;18.97;58.04;101738.06;5097248;27;45431;-61
2022/08/09 04:38:54;;;;;;;;;7.00;7.00;;;;;19.01;57.81;101745.00;5098139;27;45444;-65
2022/08/09 04:41:21;;;;;;;;;8.00;8.00;;;;;18.98;58.17;101739.78;5079477;27;45300;-62
2022/08/09 04:43:46;;;;;;;;;7.67;7.67;;;;;19.00;57.65;101747.75;5098141;27;45371;-62
2022/08/09 04:46:12;;;;;;;;;6.33;5.33;;;;;18.94;58.47;101742.84;5080201;27;45330;-61
2022/08/09 04:48:37;;;;;;;;;6.67;6.67;;;;;18.86;59.16;101743.38;5096215;27;47356;-61
2022/08/09 04:51:02;;;;;;;;;8.00;6.00;;;;;18.85;59.55;101738.97;5097948;27;45373;-61
2022/08/09 04:53:28;;;;;;;;;8.00;7.00;;;;;18.82;58.80;101744.59;5096925;27;45783;-61
2022/08/09 04:55:53;;;;;;;;;7.67;7.33;;;;;18.90;58.29;101747.59;5098813;27;45370;-61
2022/08/09 04:58:19;;;;;;;;;10.33;8.33;;;;;18.79;58.97;101720.56;5097919;27;45415;-62
2022/08/09 05:00:44;;;;;;;;;9.67;7.00;;;;;18.84;58.79;101739.94;5095264;27;45386;-61
2022/08/09 05:03:09;;;;;;;;;7.67;7.67;;;;;18.89;58.46;101747.72;5118384;27;45503;-60
2022/08/09 05:05:35;;;;;;;;;7.67;6.67;;;;;18.90;58.25;101744.91;5110066;27;45317;-60
2022/08/09 05:08:00;;;;;;;;;12.00;9.33;;;;;18.90;58.48;101753.00;5096415;27;45479;-61
2022/08/09 05:10:26;;;;;;;;;5.33;5.33;;;;;18.88;58.24;101746.84;5097624;27;45341;-59
2022/08/09 05:12:51;;;;;;;;;7.00;7.00;;;;;18.92;58.39;101744.78;5097381;27;45363;-60
2022/08/09 05:15:17;;;;;;;;;5.67;5.00;;;;;18.93;58.74;101750.06;5097379;27;45340;-60
2022/08/09 05:17:43;;;;;;;;;10.00;8.00;;;;;18.93;58.23;101757.28;5109414;27;45426;-61
2022/08/09 05:20:08;;;;;;;;;9.00;9.00;;;;;18.80;58.49;101742.00;5118217;27;45449;-61
2022/08/09 05:22:34;;;;;;;;;11.00;11.00;;;;;18.86;58.44;101751.47;5103078;27;45309;-63
2022/08/09 05:25:00;;;;;;;;;6.00;6.00;;;;;18.87;58.36;101758.56;5097151;27;45359;-61
2022/08/09 05:27:26;;;;;;;;;7.33;6.00;;;;;18.86;58.56;101746.94;5096592;27;46215;-60
2022/08/09 05:29:51;;;;;;;;;7.00;6.67;;;;;18.91;58.32;101748.47;5095814;27;45724;-61
2022/08/09 05:32:17;;;;;;;;;9.33;9.33;;;;;18.91;58.82;101756.53;5085891;27;45391;-61
2022/08/09 05:34:42;;;;;;;;;7.67;7.67;;;;;18.81;58.94;101757.19;5091417;27;45456;-61
2022/08/09 05:37:07;;;;;;;;;9.33;9.33;;;;;18.84;58.76;101762.38;5078464;27;46259;-63
2022/08/09 05:39:38;;;;;;;;;6.00;6.00;;;;;18.82;58.87;101769.72;5096329;27;45291;-61
2022/08/09 05:42:04;;;;;;;;;8.00;8.00;;;;;18.82;58.73;101766.16;5075840;27;45452;-65
2022/08/09 05:44:30;;;;;;;;;7.00;5.33;;;;;18.78;58.49;101754.75;5090019;27;45278;-61
2022/08/09 05:46:55;;;;;;;;;8.00;7.00;;;;;18.90;58.49;101779.09;5098946;27;45327;-60
2022/08/09 05:49:21;;;;;;;;;10.33;8.67;;;;;18.92;58.52;101778.00;5080073;27;45509;-61
2022/08/09 05:51:46;;;;;;;;;9.67;8.33;;;;;18.86;59.06;101783.81;5077468;28;45412;-61
2022/08/09 05:54:12;;;;;;;;;5.67;5.67;;;;;18.83;58.64;101779.50;5084663;27;45516;-61
2022/08/09 05:56:37;;;;;;;;;7.00;6.00;;;;;18.86;58.48;101784.69;5096274;27;45520;-61
2022/08/09 05:59:03;;;;;;;;;6.67;6.33;;;;;18.77;59.05;101777.28;5096270;27;45479;-62
2022/08/09 06:01:29;;;;;;;;;6.00;6.00;;;;;18.78;59.12;101779.00;5096612;27;45409;-60
2022/08/09 06:03:55;;;;;;;;;8.00;8.00;;;;;18.75;58.81;101778.31;5099335;27;45311;-60
2022/08/09 06:06:22;;;;;;;;;6.67;6.67;;;;;18.89;58.43;101782.75;5101939;27;45385;-61
2022/08/09 06:08:47;;;;;;;;;8.00;8.00;;;;;18.92;58.46;101782.53;5103409;27;48095;-61
2022/08/09 06:11:13;;;;;;;;;5.67;5.67;;;;;18.93;58.90;101785.09;5103525;27;45351;-63
2022/08/09 06:13:38;;;;;;;;;11.00;11.00;;;;;18.92;58.08;101782.53;5103215;27;45338;-60
2022/08/09 06:16:04;;;;;;;;;8.00;8.00;;;;;18.93;58.37;101776.16;5102694;27;46950;-60
2022/08/09 06:18:31;;;;;;;;;9.33;8.00;;;;;18.99;58.25;101794.56;5103587;27;45434;-62
2022/08/09 06:20:57;;;;;;;;;9.67;8.67;;;;;18.96;58.37;101792.09;5103433;27;45397;-66
2022/08/09 06:23:23;;;;;;;;;10.67;8.67;;;;;18.96;58.69;101789.41;5104060;27;45383;-63
2022/08/09 06:25:49;;;;;;;;;11.33;7.00;;;;;18.92;58.27;101796.00;5103169;27;46655;-62
2022/08/09 06:28:14;;;;;;;;;10.33;7.67;;;;;18.94;58.60;101802.16;5103555;27;45452;-63
2022/08/09 06:30:41;;;;;;;;;9.00;8.00;;;;;18.99;58.66;101808.91;5103160;27;45272;-63
2022/08/09 06:33:06;;;;;;;;;11.00;7.67;;;;;18.97;58.41;101808.16;5085929;27;45490;-60
2022/08/09 06:35:32;;;;;;;;;7.00;7.00;;;;;19.05;58.16;101810.31;5082224;28;46051;-61
2022/08/09 06:37:57;;;;;;;;;12.00;10.00;;;;;19.02;58.30;101799.78;5081255;28;45294;-63
2022/08/09 06:40:23;;;;;;;;;9.33;9.00;;;;;19.09;57.93;101807.28;5064489;28;45224;-63
2022/08/09 06:42:48;;;;;;;;;10.67;9.33;;;;;19.18;57.88;101807.59;5097763;27;45538;-62
2022/08/09 06:45:14;;;;;;;;;7.00;5.33;;;;;19.19;58.13;101815.56;5097653;27;47276;-62
2022/08/09 06:47:39;;;;;;;;;9.67;7.00;;;;;19.21;58.09;101810.94;5102740;27;45276;-62
2022/08/09 06:50:06;;;;;;;;;7.00;7.00;;;;;19.27;57.82;101812.28;5084431;27;45399;-63
2022/08/09 06:52:32;;;;;;;;;10.00;8.00;;;;;19.29;57.84;101804.97;5103432;27;45424;-62
2022/08/09 06:54:57;;;;;;;;;6.00;6.00;;;;;19.37;57.63;101816.06;5103360;27;46979;-62
2022/08/09 06:57:23;;;;;;;;;10.00;10.00;;;;;19.36;57.63;101820.59;5085052;27;45437;-63
2022/08/09 06:59:48;;;;;;;;;8.33;8.33;;;;;19.43;57.21;101821.88;5103216;27;45389;-61
2022/08/09 07:02:14;;;;;;;;;7.67;7.67;;;;;19.48;57.23;101817.97;5103162;27;45576;-62
2022/08/09 07:04:39;;;;;;;;;7.67;7.67;;;;;19.48;57.57;101817.97;5102262;27;45448;-64
2022/08/09 07:07:05;;;;;;;;;10.33;9.00;;;;;19.53;57.07;101815.78;5102850;27;45333;-63
2022/08/09 07:09:31;;;;;;;;;8.00;8.00;;;;;19.56;57.17;101810.19;5103039;27;45637;-62
2022/08/09 07:11:56;;;;;;;;;8.00;6.00;;;;;19.63;56.84;101817.72;5103426;27;45494;-64
2022/08/09 07:14:22;;;;;;;;;12.00;8.00;;;;;19.72;56.20;101816.16;5102687;27;47051;-63
2022/08/09 07:16:47;;;;;;;;;12.33;7.33;;;;;19.82;56.06;101810.94;5098554;27;45338;-62
2022/08/09 07:19:13;;;;;;;;;8.67;8.33;;;;;19.89;55.88;101817.59;5099083;27;45234;-63
2022/08/09 07:21:39;;;;;;;;;9.33;9.33;;;;;19.95;55.92;101825.25;5099350;27;45377;-59
2022/08/09 07:24:06;;;;;;;;;9.00;8.00;;;;;19.99;55.75;101819.47;5098895;27;45331;-64
2022/08/09 07:26:32;;;;;;;;;8.33;8.33;;;;;19.99;55.71;101808.69;5099063;27;45504;-61
2022/08/09 07:28:58;;;;;;;;;10.00;8.67;;;;;20.11;55.57;101824.91;5099283;27;45437;-62
2022/08/09 07:31:24;;;;;;;;;10.00;8.33;;;;;20.12;55.55;101813.13;5099075;27;45401;-61
2022/08/09 07:33:49;;;;;;;;;11.33;11.00;;;;;20.22;55.08;101819.56;5099157;27;45505;-61
2022/08/09 07:36:15;;;;;;;;;8.67;8.67;;;;;20.28;54.86;101814.53;5098925;27;45350;-62
2022/08/09 07:38:40;;;;;;;;;6.67;6.67;;;;;20.43;54.79;101820.59;5080867;27;45398;-62
2022/08/09 07:41:06;;;;;;;;;9.00;9.00;;;;;20.43;54.51;101817.91;5081125;27;45555;-61
2022/08/09 07:43:32;;;;;;;;;11.00;9.00;;;;;20.40;54.46;101810.00;5098890;27;45446;-62
2022/08/09 07:45:58;;;;;;;;;8.00;8.00;;;;;20.45;54.48;101815.13;5063330;27;45225;-62
2022/08/09 07:48:23;;;;;;;;;7.67;7.67;;;;;20.56;53.91;101818.66;5098593;27;45291;-62
2022/08/09 07:50:49;;;;;;;;;11.33;9.00;;;;;20.66;53.97;101818.81;5099337;27;45222;-63
2022/08/09 07:53:14;;;;;;;;;9.33;8.00;;;;;20.72;53.65;101812.94;5098549;27;46178;-63
2022/08/09 07:55:40;;;;;;;;;8.67;8.67;;;;;20.76;53.27;101813.53;5098832;27;45239;-62
2022/08/09 07:58:06;;;;;;;;;9.00;7.33;;;;;20.79;53.44;101819.56;5098808;27;45250;-62
2022/08/09 08:00:32;;;;;;;;;11.00;9.33;;;;;20.83;53.56;101814.75;5098821;27;45514;-62
2022/08/09 08:02:59;;;;;;;;;7.33;7.33;;;;;20.89;53.29;101814.28;5098391;27;45340;-63
2022/08/09 08:05:25;;;;;;;;;9.00;7.33;;;;;20.95;53.34;101816.47;5080014;27;45433;-63
2022/08/09 08:07:51;;;;;;;;;9.33;8.00;;;;;21.00;52.59;101822.41;5098249;27;45307;-62
2022/08/09 08:10:16;;;;;;;;;4.67;4.67;;;;;21.03;52.62;101816.72;5098240;27;45338;-62
2022/08/09 08:12:43;;;;;;;;;7.00;7.00;;;;;21.14;52.63;101813.16;5098395;27;46510;-62
2022/08/09 08:15:10;;;;;;;;;11.00;9.00;;;;;21.21;51.73;101815.22;5098591;27;45354;-62
2022/08/09 08:17:36;;;;;;;;;11.00;11.00;;;;;21.24;52.11;101802.47;5098665;27;45251;-63
2022/08/09 08:20:03;;;;;;;;;12.33;9.00;;;;;21.38;51.87;101813.91;5098706;27;45518;-61
2022/08/09 08:22:28;;;;;;;;;8.67;6.67;;;;;21.38;51.54;101804.91;5098263;27;46148;-62
2022/08/09 08:24:56;;;;;;;;;9.00;7.00;;;;;21.57;50.81;101826.75;5079909;27;45776;-62
2022/08/09 08:27:22;;;;;;;;;5.67;5.67;;;;;21.64;50.28;101819.88;5098515;27;45324;-61
2022/08/09 08:29:48;;;;;;;;;8.67;8.00;;;;;21.72;49.93;101813.78;5098310;27;45222;-63
2022/08/09 08:32:14;;;;;;;;;9.00;7.33;;;;;21.86;50.45;101815.34;5088237;27;46140;-59
2022/08/09 08:34:39;;;;;;;;;8.00;8.00;;;;;22.12;49.68;101811.31;5077814;27;45426;-62
2022/08/09 08:37:05;;;;;;;;;9.00;8.00;;;;;22.59;48.35;101812.63;5078124;28;45249;-63
2022/08/09 08:39:30;;;;;;;;;8.67;8.67;;;;;23.17;47.63;101814.75;5078044;28;45648;-62
2022/08/09 08:41:57;;;;;;;;;8.00;8.00;;;;;23.81;45.71;101814.34;5077533;28;46301;-61
2022/08/09 08:44:23;;;;;;;;;8.00;8.00;;;;;24.29;45.43;101811.59;5078034;28;45395;-63
2022/08/09 08:46:50;;;;;;;;;6.75;6.50;;;;;24.83;43.40;101804.59;5072812;27;45330;-62
2022/08/09 08:49:16;;;;;;;;;7.50;6.50;;;;;25.29;41.31;101800.13;5098381;27;45454;-63
2022/08/09 08:51:42;;;;;;;;;7.25;7.25;;;;;25.63;41.51;101800.31;5097781;27;46980;-61
2022/08/09 08:54:07;;;;;;;;;6.75;6.75;;;;;26.07;40.97;101803.16;5097766;27;45184;-64
2022/08/09 08:56:38;;;;;;;;;7.25;7.25;;;;;26.54;39.95;101794.63;5097719;27;45263;-64
2022/08/09 08:59:05;;;;;;;;;7.25;7.25;;;;;26.84;38.47;101805.06;5098217;27;45382;-64
2022/08/09 09:01:33;;;;;;;;;7.50;6.00;;;;;27.22;37.48;101795.53;5097502;27;45774;-63
2022/08/09 09:04:01;;;;;;;;;7.00;7.00;;;;;27.56;37.35;101776.31;5097638;27;45176;-63
2022/08/09 09:06:29;;;;;;;;;7.60;6.40;;;;;27.92;36.02;101789.72;5098006;27;45469;-62
2022/08/09 09:08:55;;;;;;;;;9.00;7.00;;;;;28.25;35.65;101797.91;5097886;27;45501;-61
2022/08/09 09:11:21;;;;;;;;;6.20;6.20;;;;;28.58;35.92;101799.59;5097206;27;45318;-63
2022/08/09 09:13:49;;;;;;;;;6.25;6.25;;;;;28.89;35.17;101801.59;5097487;27;45392;-64
2022/08/09 09:16:14;;;;;;;;;6.00;6.00;;;;;28.94;33.79;101774.53;5097613;27;45235;-65
2022/08/09 09:18:40;;;;;;;;;7.00;7.00;;;;;29.30;33.41;101792.19;5097594;27;45311;-62
2022/08/09 09:21:06;;;;;;;;;4.25;4.25;;;;;29.47;33.72;101795.69;5097185;27;45441;-63
2022/08/09 09:23:44;;;;;;;;;4.20;4.20;;;;;29.67;33.63;101787.84;5097223;27;45354;-64
2022/08/09 09:26:12;;;;;;;;;7.20;6.60;;;;;29.75;33.56;101787.78;5096865;27;45347;-64
2022/08/09 09:28:43;;;;;;;;;7.20;7.20;;;;;30.07;32.43;101794.06;5097288;27;45391;-65
2022/08/09 09:31:13;;;;;;;;;6.80;6.80;;;;;30.31;33.05;101787.50;5096716;27;45467;-62
2022/08/09 09:33:38;;;;;;;;;7.80;7.80;;;;;30.49;32.16;101785.28;5097146;27;45827;-64
2022/08/09 09:36:06;;;;;;;;;7.50;6.50;;;;;30.49;32.45;101780.66;5097170;27;45259;-64
2022/08/09 09:38:48;;;;;;;;;7.00;7.00;;;;;30.70;31.95;101787.31;5094371;27;45531;-64
2022/08/09 09:41:24;;;;;;;;;9.40;8.60;;;;;31.05;32.38;101786.53;5095651;27;48054;-64
2022/08/09 09:43:49;;;;;;;;;11.20;11.20;;;;;31.42;32.22;101772.84;5096902;27;45353;-63
2022/08/09 09:46:15;;;;;;;;;9.00;7.25;;;;;31.63;31.17;101775.59;5097086;27;45169;-64
2022/08/09 09:48:59;;;;;;;;;6.25;6.25;;;;;31.78;29.99;101775.56;5097021;27;45183;-64
2022/08/09 09:51:28;;;;;;;;;5.80;5.80;;;;;32.09;30.09;101778.81;5096841;27;45412;-63
2022/08/09 09:54:05;;;;;;;;;6.20;6.00;;;;;32.26;27.72;101773.84;5096958;27;45388;-63
2022/08/09 09:56:39;;;;;;;;;6.80;6.20;;;;;32.47;28.51;101770.25;5097206;27;45365;-63
2022/08/09 09:59:05;;;;;;;;;5.80;5.80;;;;;32.67;28.79;101776.72;5097286;27;45315;-64
2022/08/09 10:01:31;;;;;;;;;7.40;6.00;;;;;32.85;27.88;101774.31;5096791;27;46316;-62
2022/08/09 10:03:56;;;;;;;;;8.25;7.00;;;;;32.91;29.31;101769.03;5096979;27;45411;-62
2022/08/09 10:06:22;;;;;;;;;7.00;7.00;;;;;32.83;28.23;101764.56;5097046;27;45244;-64
2022/08/09 10:08:49;;;;;;;;;6.75;6.00;;;;;32.81;27.59;101761.97;5078606;27;45268;-63
2022/08/09 10:11:18;;;;;;;;;6.80;6.80;;;;;32.85;28.27;101765.19;5096300;27;46273;-63
2022/08/09 10:13:46;;;;;;;;;6.00;5.80;;;;;32.83;28.35;101761.81;5096345;27;45469;-65
2022/08/09 10:16:11;;;;;;;;;8.00;8.00;;;;;32.82;28.23;101777.50;5096682;27;45444;-64
2022/08/09 10:18:37;;;;;;;;;8.50;8.50;;;;;32.53;27.83;101761.16;5096828;27;45665;-66
2022/08/09 10:21:09;;;;;;;;;7.25;5.75;;;;;32.28;28.45;101767.13;5096398;27;46114;-64
2022/08/09 10:23:35;;;;;;;;;10.40;10.40;;;;;32.26;28.41;101763.69;5096417;27;45438;-62
2022/08/09 10:26:02;;;;;;;;;8.20;8.20;;;;;31.88;28.65;101748.56;5096987;27;45397;-63
2022/08/09 10:28:33;;;;;;;;;6.00;6.00;;;;;31.64;30.02;101753.41;5079071;27;45295;-63
2022/08/09 10:30:59;;;;;;;;;6.20;6.20;;;;;31.47;29.17;101751.94;5078888;27;46771;-64
2022/08/09 10:33:24;;;;;;;;;8.40;7.20;;;;;31.04;29.71;101765.59;5096157;27;45496;-63
2022/08/09 10:35:51;;;;;;;;;12.50;11.00;;;;;30.78;30.37;101759.75;5096485;27;45483;-64
2022/08/09 10:38:18;;;;;;;;;7.40;7.40;;;;;30.50;30.26;101763.13;5097257;27;45523;-63
2022/08/09 10:40:44;;;;;;;;;9.00;7.40;;;;;30.24;30.80;101754.50;5096083;27;46374;-64
2022/08/09 10:43:11;;;;;;;;;6.20;6.20;;;;;29.90;31.14;101758.53;5095908;27;45342;-64
2022/08/09 10:45:37;;;;;;;;;6.00;6.00;;;;;29.65;32.11;101757.03;5096220;27;45618;-63
2022/08/09 10:48:35;;;;;;;;;7.40;7.40;;;;;29.37;31.61;101752.03;5096559;27;45566;-62
2022/08/09 10:51:37;;;;;;;;;7.80;7.80;;;;;29.12;32.39;101758.69;5077857;27;46409;-63
2022/08/09 10:54:06;;;;;;;;;7.80;7.80;;;;;28.99;32.28;101747.47;5099746;27;45405;-63
2022/08/09 10:56:36;;;;;;;;;7.20;6.00;;;;;28.88;32.47;101753.31;5100090;27;45349;-64
2022/08/09 10:59:21;;;;;;;;;9.60;9.60;;;;;28.82;32.74;101741.19;5083005;27;45366;-63
2022/08/09 11:01:52;;;;;;;;;8.80;8.20;;;;;28.88;32.95;101745.13;5098880;27;46288;-61
2022/08/09 11:04:20;;;;;;;;;8.00;8.00;;;;;28.93;32.91;101742.72;5099743;27;45513;-62
2022/08/09 11:06:49;;;;;;;;;8.20;7.60;;;;;28.96;32.25;101743.19;5099604;27;45410;-63
2022/08/09 11:09:26;;;;;;;;;6.20;6.20;;;;;28.92;32.47;101735.53;5100037;27;45506;-63
2022/08/09 11:11:56;;;;;;;;;9.00;7.80;;;;;28.93;32.99;101748.19;5099314;27;46076;-63
2022/08/09 11:14:40;;;;;;;;;8.40;7.00;;;;;28.90;32.65;101743.91;5097872;27;45468;-63
2022/08/09 11:17:11;;;;;;;;;7.80;6.60;;;;;28.93;31.73;101737.25;5099385;27;45306;-63
2022/08/09 11:19:54;;;;;;;;;7.40;7.40;;;;;28.94;32.12;101739.78;5099680;27;45402;-64
2022/08/09 11:22:40;;;;;;;;;9.40;7.20;;;;;28.85;32.25;101715.31;5099217;27;46279;-63
2022/08/09 11:25:06;;;;;;;;;5.20;5.20;;;;;29.01;31.54;101739.91;5084588;27;45425;-63
2022/08/09 11:27:43;;;;;;;;;8.80;7.00;;;;;28.90;31.78;101721.13;5099697;27;45399;-62